createdAt,value
2023-03-15T00:04:05.992Z,4.43
2023-03-15T00:09:10.162Z,4.03
2023-03-15T00:14:15.157Z,3.80
2023-03-15T00:19:18.523Z,3.40
2023-03-15T00:24:24.025Z,3.40
2023-03-15T00:29:30.245Z,3.13
2023-03-15T00:34:34.214Z,3.00
2023-03-15T00:39:38.776Z,3.17
2023-03-15T00:44:47.178Z,2.90
2023-03-15T00:49:51.053Z,3.00
2023-03-15T00:54:54.987Z,3.13
2023-03-15T01:00:04.919Z,3.20
2023-03-15T01:05:09.984Z,2.90
2023-03-15T01:10:15.403Z,3.07
2023-03-15T01:15:20.390Z,2.90
2023-03-15T01:20:23.813Z,2.50
2023-03-15T01:25:27.219Z,2.73
2023-03-15T01:30:32.195Z,3.00
2023-03-15T01:35:35.705Z,2.60
2023-03-15T01:40:42.958Z,3.00
2023-03-15T01:46:06.525Z,2.70
2023-03-15T01:51:19.947Z,3.43
2023-03-15T01:56:25.635Z,3.50
2023-03-15T02:01:32.420Z,3.17
2023-03-15T02:06:36.748Z,2.93
2023-03-15T02:11:41.194Z,3.37
2023-03-15T02:16:47.042Z,5.47
2023-03-15T02:22:03.508Z,3.50
2023-03-15T02:27:07.772Z,3.60
2023-03-15T02:32:12.962Z,3.50
2023-03-15T02:37:16.359Z,3.73
2023-03-15T02:42:20.738Z,3.50
2023-03-15T02:47:30.824Z,3.23
2023-03-15T02:52:35.056Z,3.40
2023-03-15T02:57:39.459Z,3.63
2023-03-15T03:02:46.797Z,3.13
2023-03-15T03:07:51.055Z,3.23
2023-03-15T03:12:55.042Z,3.73
2023-03-15T03:18:07.939Z,3.40
2023-03-15T03:23:11.359Z,3.07
2023-03-15T03:28:14.762Z,3.77
2023-03-15T03:33:19.761Z,3.80
2023-03-15T03:38:24.347Z,3.97
2023-03-15T03:43:32.897Z,4.73
2023-03-15T03:48:38.317Z,4.10
2023-03-15T03:53:43.875Z,3.90
2023-03-15T03:58:48.094Z,3.97
2023-03-15T04:04:00.891Z,3.87
2023-03-15T04:09:05.233Z,4.23
2023-03-15T04:14:16.296Z,3.70
2023-03-15T04:19:23.664Z,3.77
2023-03-15T04:24:28.520Z,3.27
2023-03-15T04:29:44.394Z,2.93
2023-03-15T04:35:12.534Z,3.10
2023-03-15T04:40:35.186Z,3.70
2023-03-15T04:46:04.319Z,3.13
2023-03-15T04:51:29.741Z,3.20
2023-03-15T04:56:50.651Z,3.50
2023-03-15T05:02:03.807Z,3.03
2023-03-15T05:07:15.198Z,3.20
2023-03-15T05:12:47.839Z,3.17
2023-03-15T05:18:00.573Z,3.70
2023-03-15T05:23:11.178Z,3.73
2023-03-15T05:28:23.730Z,3.70
2023-03-15T05:33:46.840Z,4.03
2023-03-15T05:39:16.765Z,4.20
2023-03-15T05:44:38.678Z,3.77
2023-03-15T05:49:42.105Z,3.20
2023-03-15T05:55:02.556Z,3.27
2023-03-15T06:00:22.316Z,3.40
2023-03-15T06:05:31.709Z,3.20
2023-03-15T06:10:41.089Z,2.97
2023-03-15T06:15:48.594Z,2.90
2023-03-15T06:20:54.208Z,2.47
2023-03-15T06:25:59.440Z,2.80
2023-03-15T06:31:09.355Z,2.97
2023-03-15T06:36:20.662Z,2.63
2023-03-15T06:41:26.341Z,3.10
2023-03-15T06:46:36.935Z,2.70
2023-03-15T06:51:42.643Z,2.63
2023-03-15T06:56:48.298Z,2.80
2023-03-15T08:45:02.464Z,1.90
2023-03-15T08:50:13.638Z,1.90
2023-03-15T08:55:18.782Z,2.00
2023-03-15T09:00:26.232Z,2.17
2023-03-15T09:05:30.717Z,1.77
2023-03-15T09:10:35.557Z,2.30
2023-03-15T09:15:46.100Z,3.00
2023-03-15T09:20:50.459Z,2.63
2023-03-15T09:25:54.892Z,2.90
2023-03-15T09:31:01.459Z,2.60
2023-03-15T09:36:06.468Z,2.80
2023-03-15T09:41:23.945Z,2.90
2023-03-15T09:46:33.910Z,5.37
2023-03-15T09:51:48.203Z,17.33
2023-03-15T09:56:58.388Z,4.63
2023-03-15T10:02:15.516Z,2.80
2023-03-15T10:07:19.690Z,3.37
2023-03-15T10:12:31.189Z,3.80
2023-03-15T10:17:46.976Z,4.03
2023-03-15T10:22:59.388Z,4.57
2023-03-15T10:28:07.066Z,4.73
2023-03-15T10:33:18.601Z,4.93
2023-03-15T10:38:25.349Z,6.43
2023-03-15T10:43:32.646Z,6.20
2023-03-15T10:48:40.709Z,5.93
2023-03-15T10:53:57.394Z,6.73
2023-03-15T10:59:12.265Z,8.60
2023-03-15T11:04:23.349Z,6.23
2023-03-15T11:09:29.577Z,6.87
2023-03-15T11:14:42.731Z,7.50
2023-03-15T11:19:59.836Z,7.27
2023-03-15T11:25:06.324Z,7.80
2023-03-15T11:30:24.658Z,8.50
2023-03-15T11:35:39.060Z,9.27
2023-03-15T11:46:31.639Z,8.33
2023-03-15T11:52:05.000Z,7.27
2023-03-15T12:04:54.098Z,8.23
2023-03-15T12:24:24.482Z,9.90
2023-03-15T12:29:44.586Z,9.33
2023-03-15T12:35:24.604Z,8.60
2023-03-15T12:41:35.105Z,11.30
2023-03-15T12:53:05.169Z,9.03
2023-03-15T12:58:26.100Z,9.60
2023-03-15T14:00:10.780Z,9.67
2023-03-15T14:05:16.259Z,8.93
2023-03-15T14:10:28.955Z,9.17
2023-03-15T14:15:37.897Z,8.43
2023-03-15T14:20:43.424Z,8.60
2023-03-15T14:25:53.367Z,8.57
2023-03-15T14:30:59.097Z,7.60
2023-03-15T14:36:05.294Z,8.67
2023-03-15T14:41:20.916Z,9.30
2023-03-15T14:46:24.788Z,10.47
2023-03-15T14:51:29.649Z,9.33
2023-03-15T14:56:36.988Z,11.30
2023-03-15T15:01:45.859Z,9.90
2023-03-15T15:06:54.266Z,12.07
2023-03-15T15:11:59.031Z,11.07
2023-03-15T15:17:04.324Z,10.93
2023-03-15T15:22:08.192Z,11.97
2023-03-15T15:27:13.954Z,14.00
2023-03-15T15:32:17.693Z,12.50
2023-03-15T15:37:21.110Z,13.93
2023-03-15T15:42:25.981Z,13.90
2023-03-15T15:47:29.474Z,14.20
2023-03-15T15:52:33.003Z,13.93
2023-03-15T15:57:37.992Z,14.40
2023-03-15T16:02:41.905Z,15.00
2023-03-15T16:07:45.615Z,15.97
2023-03-15T16:12:52.213Z,14.07
2023-03-15T16:17:55.665Z,13.70
2023-03-15T16:23:01.062Z,13.80
2023-03-15T16:28:08.216Z,14.43
2023-03-15T16:33:16.534Z,14.77
2023-03-15T16:38:26.473Z,15.50
2023-03-15T16:43:31.319Z,16.93
2023-03-15T16:48:34.783Z,16.07
2023-03-15T16:53:38.904Z,16.90
2023-03-15T16:58:45.665Z,15.13
2023-03-15T17:03:49.101Z,15.93
2023-03-15T17:08:55.547Z,18.03
2023-03-15T17:14:00.952Z,18.07
2023-03-15T17:19:04.711Z,17.20
2023-03-15T17:24:09.331Z,18.10
2023-03-15T17:29:16.800Z,16.13
2023-03-15T17:34:22.107Z,15.17
2023-03-15T17:39:29.322Z,15.80
2023-03-15T17:44:34.553Z,15.33
2023-03-15T17:49:37.974Z,14.83
2023-03-15T17:54:41.471Z,15.30
2023-03-15T17:59:48.165Z,16.13
2023-03-15T18:04:51.643Z,15.67
2023-03-15T18:09:55.172Z,16.13
2023-03-15T18:15:01.635Z,17.13
2023-03-15T18:20:09.204Z,18.97
2023-03-15T18:25:19.139Z,18.83
2023-03-15T18:30:27.770Z,18.17
2023-03-15T18:35:37.652Z,18.37
2023-03-15T18:40:41.096Z,18.87
2023-03-15T18:45:48.414Z,20.00
2023-03-15T18:50:52.596Z,21.63
2023-03-15T18:55:55.975Z,20.67
2023-03-15T19:01:01.026Z,20.43
2023-03-15T19:06:06.056Z,17.57
2023-03-15T19:11:10.756Z,17.20
2023-03-15T19:16:17.955Z,16.50
2023-03-15T19:21:21.985Z,16.70
2023-03-15T19:26:25.944Z,18.30
2023-03-15T19:31:31.193Z,18.37
2023-03-15T19:36:34.613Z,17.13
2023-03-15T19:41:38.187Z,17.93
2023-03-15T19:46:46.086Z,17.53
2023-03-15T19:51:49.861Z,16.33
2023-03-15T19:56:56.425Z,16.93
2023-03-15T20:02:01.855Z,16.20
2023-03-15T20:07:05.577Z,17.70
2023-03-15T20:12:11.042Z,17.43
2023-03-15T20:17:16.419Z,14.83
2023-03-15T20:22:20.080Z,16.67
2023-03-15T20:27:23.517Z,17.60
2023-03-15T20:32:28.691Z,17.30
2023-03-15T20:37:35.175Z,17.43
2023-03-15T20:42:38.717Z,15.50
2023-03-15T20:47:43.827Z,16.10
2023-03-15T20:52:47.556Z,16.23
2023-03-15T20:57:52.779Z,14.87
2023-03-15T21:02:58.440Z,14.13
2023-03-15T21:08:01.936Z,14.37
2023-03-15T21:13:09.887Z,15.20
2023-03-15T21:18:15.498Z,13.53
2023-03-15T21:23:18.981Z,14.57
2023-03-15T21:28:22.898Z,13.10
2023-03-15T21:33:30.310Z,12.93
2023-03-15T21:38:36.378Z,12.97
2023-03-15T21:43:40.035Z,12.67
2023-03-15T21:48:44.907Z,13.53
2023-03-15T21:53:50.302Z,12.80
2023-03-15T21:58:54.020Z,14.70
2023-03-15T22:03:58.833Z,13.47
2023-03-15T22:09:03.336Z,13.43
2023-03-15T22:14:06.702Z,13.60
2023-03-15T22:19:12.292Z,13.20
2023-03-15T22:24:15.974Z,12.57
2023-03-15T22:29:19.872Z,12.30
2023-03-15T22:34:27.402Z,12.37
2023-03-15T22:39:32.013Z,12.70
2023-03-15T22:44:35.657Z,12.60
2023-03-15T22:49:40.653Z,11.97
2023-03-15T22:54:44.128Z,12.43
2023-03-15T22:59:47.905Z,13.07
2023-03-15T23:04:52.935Z,12.17
2023-03-15T23:09:56.469Z,13.43
2023-03-15T23:14:59.863Z,13.73
2023-03-15T23:20:07.321Z,13.93
2023-03-15T23:25:12.057Z,14.23
2023-03-15T23:30:17.300Z,13.80
2023-03-15T23:35:22.455Z,15.10
2023-03-15T23:40:26.646Z,15.00
2023-03-15T23:45:30.857Z,13.73
2023-03-15T23:50:35.950Z,15.13
2023-03-15T23:55:39.772Z,14.60
